Terminal Aerodrome Forecast
Issued by NWS Houston/Galveston, TX

Home | Current Version | Previous Version | Text Only | Print | Product List | Glossary On
Versions: 1 2 3 4 5 6 7 8 9 10 11 12 13 14 15 16 17 18 19 20 21 22 23 24 25 26 27 28 29 30 31 32 33 34 35 36 37
000
FTUS44 KHGX 170520
TAFCLL
TAF
KCLL 170520Z 1706/1806 02007KT 6SM -RA SCT008 OVC012
     FM171200 02009KT 5SM BR VCSH SCT006 OVC010
     FM171800 02009KT P6SM VCSH OVC010
     FM180100 02008KT 6SM BR VCSH OVC007
     FM180400 03008KT 4SM -RA BR OVC004=

USA.gov is the U.S. government's official web portal to all federal, state and local government web resources and services.